.
WxDataArchive / Data Records for 2009-09-16
2009-09-15 September 2009 2009-09-17

Data Records for Wednesday, 16 September 2009

Time	Temp	Chill	HIndex	Humid	Dewpt	 Wind 	HiWind	WindDir	Rain 	Barom 
-----	----	-----	------	-----	-----	------	------	-------	-----	----- 
00:00	68.4	68.4	68.4	87	64.4	0	0	---	0.00	30.058 
00:05	68.3	68.3	68.3	87	64.3	0	1	135	0.00	30.058 
00:10	68.1	68.1	68.1	87	64.1	0	1	135	0.00	30.058 
00:15	67.8	67.8	67.8	86	63.5	0	1	135	0.00	30.059 
00:20	67.8	67.8	67.8	85	63.1	0	1	135	0.00	30.059 
00:25	67.8	67.8	67.8	84	62.8	0	1	135	0.00	30.059 
00:30	67.8	67.8	67.8	84	62.8	0	1	135	0.00	30.062 
00:35	67.8	67.8	67.8	84	62.8	0	3	135	0.00	30.062 
00:40	67.6	67.6	67.6	83	62.2	0	2	135	0.00	30.062 
00:45	67.6	67.6	67.6	83	62.2	0	2	135	0.00	30.067 
00:50	67.6	67.6	67.6	82	61.9	1	3	90	0.00	30.067 
00:55	67.6	67.6	67.6	82	61.9	1	3	135	0.00	30.067 
01:00	67.4	67.4	67.4	81	61.4	0	3	90	0.00	30.073 
01:05	67.3	67.3	67.3	81	61.3	0	2	112	0.00	30.073 
01:10	67.1	67.1	67.1	81	61.1	0	3	112	0.00	30.073 
01:15	66.9	66.9	66.9	82	61.2	0	3	112	0.00	30.079 
01:20	66.8	66.8	66.8	82	61.1	1	2	112	0.00	30.079 
01:25	66.4	66.4	66.4	82	60.7	0	2	112	0.00	30.079 
01:30	66.3	66.3	66.3	83	61.0	1	3	90	0.00	30.079 
01:35	66.1	66.1	66.1	83	60.8	1	5	90	0.00	30.079 
01:40	66.0	66.0	66.0	84	61.0	1	4	90	0.00	30.079 
01:45	65.8	65.8	65.8	84	60.8	1	5	45	0.00	30.087 
01:50	65.6	65.6	65.6	85	61.0	2	9	112	0.00	30.087 
01:55	65.3	65.3	65.3	85	60.7	1	5	112	0.00	30.087 
02:00	65.2	65.2	65.2	85	60.6	2	5	90	0.00	30.090 
02:05	64.8	64.8	64.8	85	60.2	2	6	90	0.00	30.090 
02:10	64.7	64.7	64.7	85	60.1	1	4	90	0.00	30.090 
02:15	64.5	64.5	64.5	85	59.9	1	3	90	0.00	30.090 
02:20	64.3	64.3	64.3	86	60.0	1	5	90	0.00	30.090 
02:25	64.0	64.0	64.0	86	59.7	1	3	90	0.00	30.090 
02:30	63.9	63.9	63.9	86	59.6	0	2	90	0.00	30.094 
02:35	63.7	63.7	63.7	87	59.8	0	4	90	0.00	30.094 
02:40	63.5	63.5	63.5	87	59.6	1	6	90	0.00	30.094 
02:45	63.4	63.4	63.4	87	59.5	0	2	112	0.00	30.094 
02:50	63.1	63.1	63.1	87	59.2	1	3	45	0.00	30.094 
02:55	62.9	62.9	62.9	86	58.6	1	4	90	0.00	30.094 
03:00	62.7	62.7	62.7	84	57.8	3	10	112	0.00	30.095 
03:05	62.7	62.7	62.7	83	57.5	1	4	112	0.00	30.095 
03:10	62.6	62.6	62.6	83	57.4	1	4	112	0.00	30.095 
03:15	62.6	62.6	62.6	82	57.0	2	5	112	0.00	30.096 
03:20	62.4	62.4	62.4	82	56.8	1	3	90	0.00	30.096 
03:25	62.3	62.3	62.3	82	56.7	1	5	90	0.00	30.096 
03:30	62.1	62.1	62.1	81	56.2	0	4	112	0.00	30.102 
03:35	62.0	62.0	62.0	81	56.1	1	6	90	0.00	30.102 
03:40	61.8	61.8	61.8	81	55.9	0	3	112	0.00	30.102 
03:45	61.6	61.6	61.6	81	55.7	0	3	112	0.00	30.107 
03:50	61.5	61.5	61.5	81	55.6	1	3	112	0.00	30.107 
03:55	61.3	61.3	61.3	81	55.4	1	3	112	0.00	30.107 
04:00	61.3	61.3	61.3	81	55.4	1	3	112	0.00	30.115 
04:05	61.3	61.3	61.3	81	55.4	1	3	112	0.00	30.115 
04:10	61.5	61.5	61.5	81	55.6	1	4	135	0.00	30.115 
04:15	61.5	61.5	61.5	81	55.6	1	5	68	0.00	30.117 
04:20	61.5	61.5	61.5	80	55.3	1	3	68	0.00	30.117 
04:25	61.6	61.6	61.6	80	55.4	1	6	90	0.00	30.117 
04:30	61.6	61.6	61.6	80	55.4	1	5	112	0.00	30.121 
04:35	61.5	61.5	61.5	79	54.9	1	4	90	0.00	30.121 
04:40	61.5	61.5	61.5	79	54.9	1	7	135	0.00	30.121 
04:45	61.5	61.5	61.5	79	54.9	2	6	90	0.00	30.127 
04:50	61.5	61.5	61.5	79	54.9	1	5	90	0.00	30.127 
04:55	61.5	61.5	61.5	79	54.9	1	4	112	0.00	30.127 
05:00	61.3	61.3	61.3	78	54.4	2	6	135	0.00	30.128 
05:05	61.3	61.3	61.3	78	54.4	1	7	90	0.00	30.128 
05:10	61.3	61.3	61.3	78	54.4	1	6	68	0.00	30.128 
05:15	61.3	61.3	61.3	77	54.0	1	7	68	0.00	30.137 
05:20	61.3	61.3	61.3	76	53.7	2	6	90	0.00	30.137 
05:25	61.3	61.3	61.3	76	53.7	1	4	112	0.00	30.137 
05:30	61.2	61.2	61.2	75	53.2	2	6	135	0.00	30.138 
05:35	61.0	61.0	61.0	76	53.4	1	5	112	0.00	30.138 
05:40	60.9	60.9	60.9	76	53.3	1	4	112	0.00	30.138 
05:45	60.5	60.5	60.5	77	53.2	1	4	112	0.00	30.141 
05:50	60.4	60.4	60.4	78	53.5	1	5	112	0.00	30.141 
05:55	60.2	60.2	60.2	78	53.3	1	5	112	0.00	30.141 
06:00	60.1	60.1	60.1	79	53.6	1	6	112	0.00	30.145 
06:05	59.9	59.9	59.9	80	53.7	2	6	135	0.00	30.145 
06:10	59.8	59.8	59.8	81	54.0	1	4	90	0.00	30.145 
06:15	59.8	59.8	59.8	81	54.0	1	7	90	0.00	30.150 
06:20	59.6	59.6	59.6	81	53.8	1	5	90	0.00	30.150 
06:25	59.5	59.5	59.5	81	53.7	1	4	112	0.00	30.150 
06:30	59.3	59.3	59.3	81	53.5	1	2	112	0.00	30.154 
06:35	59.2	59.2	59.2	82	53.7	1	4	112	0.00	30.154 
06:40	59.2	59.2	59.2	82	53.7	2	7	90	0.00	30.154 
06:45	59.0	59.0	59.0	83	53.8	1	4	90	0.00	30.160 
06:50	58.9	58.9	58.9	84	54.1	1	5	112	0.00	30.160 
06:55	58.7	58.7	58.7	85	54.2	2	4	90	0.00	30.160 
07:00	58.6	58.6	58.6	85	54.1	1	4	112	0.00	30.163 
07:05	58.4	58.4	58.4	86	54.2	1	4	112	0.00	30.163 
07:10	58.3	58.3	58.3	87	54.4	1	7	112	0.00	30.163 
07:15	58.3	58.3	58.3	87	54.4	1	4	90	0.00	30.169 
07:20	58.1	58.1	58.1	88	54.6	1	6	112	0.00	30.169 
07:25	58.0	58.0	58.0	88	54.5	1	3	68	0.00	30.169 
07:30	58.0	58.0	58.0	88	54.5	2	7	90	0.00	30.177 
07:35	57.8	57.8	57.8	88	54.3	2	6	90	0.00	30.177 
07:40	57.8	57.8	57.8	88	54.3	1	4	90	0.00	30.177 
07:45	57.6	57.6	57.6	88	54.1	2	6	90	0.00	30.181 
07:50	57.6	57.6	57.6	88	54.1	2	5	90	0.00	30.181 
07:55	57.5	57.5	57.5	88	54.0	2	6	112	0.00	30.181 
08:00	57.5	57.5	57.5	87	53.7	2	14	68	0.00	30.190 
08:05	57.5	57.5	57.5	87	53.7	2	7	112	0.00	30.190 
08:10	57.5	57.5	57.5	87	53.7	2	6	135	0.00	30.190 
08:15	57.6	57.6	57.6	86	53.4	2	6	90	0.00	30.198 
08:20	57.6	57.6	57.6	85	53.1	4	10	112	0.00	30.198 
08:25	58.0	58.0	58.0	84	53.2	3	9	112	0.00	30.198 
08:30	58.1	58.1	58.1	83	53.0	2	6	90	0.00	30.198 
08:35	58.1	58.1	58.1	83	53.0	3	9	112	0.00	30.198 
08:40	58.4	58.4	58.4	82	52.9	2	7	112	0.00	30.198 
08:45	58.7	58.7	58.7	82	53.2	1	3	135	0.00	30.195 
08:50	58.7	58.7	58.7	82	53.2	1	4	135	0.00	30.195 
08:55	58.6	58.6	58.6	81	52.8	3	7	112	0.00	30.195 
09:00	58.7	58.7	58.7	81	52.9	3	11	90	0.00	30.198 
09:05	58.7	58.7	58.7	80	52.5	3	9	90	0.00	30.198 
09:10	58.7	58.7	58.7	80	52.5	3	9	90	0.00	30.198 
09:15	58.9	58.9	58.9	80	52.7	3	6	90	0.00	30.200 
09:20	59.2	59.2	59.2	79	52.7	2	6	135	0.00	30.200 
09:25	59.3	59.3	59.3	78	52.4	3	12	112	0.00	30.200 
09:30	59.3	59.3	59.3	77	52.1	4	12	90	0.00	30.202 
09:35	59.6	59.6	59.6	77	52.4	3	7	90	0.00	30.202 
09:40	59.9	59.9	59.9	77	52.7	3	11	112	0.00	30.202 
09:45	60.4	60.4	60.4	77	53.2	1	6	112	0.00	30.203 
09:50	60.4	60.4	60.4	77	53.2	2	6	112	0.00	30.203 
09:55	60.5	60.5	60.5	77	53.2	2	9	112	0.00	30.203 
10:00	61.0	61.0	61.0	75	53.0	2	6	112	0.00	30.207 
10:05	61.3	61.3	61.3	73	52.6	3	7	112	0.00	30.207 
10:10	61.6	61.6	61.6	72	52.5	3	7	90	0.00	30.207 
10:15	62.1	62.1	62.1	72	53.0	2	5	90	0.00	30.210 
10:20	62.7	62.7	62.7	71	53.2	2	6	112	0.00	30.210 
10:25	62.9	62.9	62.9	69	52.6	3	7	90	0.00	30.210 
10:30	63.1	63.1	63.1	69	52.8	3	9	112	0.00	30.209 
10:35	63.4	63.4	63.4	69	53.0	2	7	112	0.00	30.209 
10:40	63.7	63.7	63.7	69	53.3	2	6	90	0.00	30.209 
10:45	64.2	64.2	64.2	68	53.4	2	6	112	0.00	30.210 
10:50	64.3	64.3	64.3	67	53.1	2	6	112	0.00	30.210 
10:55	64.5	64.5	64.5	69	54.1	2	7	135	0.00	30.210 
11:00	65.0	65.0	65.0	66	53.4	2	5	90	0.00	30.213 
11:05	64.8	64.8	64.8	65	52.8	4	11	112	0.00	30.213 
11:10	64.8	64.8	64.8	66	53.2	2	6	112	0.00	30.213 
11:15	65.2	65.2	65.2	66	53.5	2	9	112	0.00	30.214 
11:20	65.5	65.5	65.5	64	53.0	2	6	112	0.00	30.214 
11:25	65.8	65.8	65.8	63	52.8	2	7	112	0.00	30.214 
11:30	66.3	66.3	66.3	63	53.3	1	5	90	0.00	30.213 
11:35	66.6	66.6	66.6	62	53.2	2	7	112	0.00	30.213 
11:40	66.6	66.6	66.6	61	52.7	3	6	112	0.00	30.213 
11:45	66.8	66.8	66.8	60	52.5	2	5	112	0.00	30.213 
11:50	67.1	67.1	67.1	61	53.2	3	7	90	0.00	30.213 
11:55	66.8	66.8	66.8	59	52.0	4	13	112	0.00	30.213 
12:00	66.8	66.8	66.8	59	52.0	4	11	112	0.00	30.213 
12:05	67.1	67.1	67.1	57	51.3	4	9	90	0.00	30.213 
12:10	67.1	67.1	67.1	58	51.8	4	9	112	0.00	30.213 
12:15	67.4	67.4	67.4	58	52.1	3	9	90	0.00	30.214 
12:20	67.8	67.8	67.8	57	52.0	3	9	90	0.00	30.214 
12:25	68.1	68.1	68.1	58	52.8	2	7	68	0.00	30.214 
12:30	68.1	68.1	68.1	56	51.8	4	11	112	0.00	30.214 
12:35	68.1	68.1	68.1	55	51.3	3	9	112	0.00	30.214 
12:40	68.3	68.3	68.3	55	51.5	3	8	90	0.00	30.214 
12:45	68.1	68.1	68.1	56	51.8	4	10	112	0.00	30.212 
12:50	68.4	68.4	68.4	58	53.0	2	6	90	0.00	30.212 
12:55	68.9	68.9	68.9	54	51.6	3	8	90	0.00	30.212 
13:00	69.4	69.4	69.4	55	52.5	3	6	112	0.00	30.210 
13:05	69.4	69.4	69.4	55	52.5	3	6	112	0.00	30.210 
13:10	69.3	69.3	69.3	55	52.4	3	7	112	0.00	30.210 
13:15	69.1	69.1	69.1	57	53.2	4	10	112	0.00	30.209 
13:20	69.3	69.3	69.3	58	53.9	2	3	112	0.00	30.209 
13:25	69.6	69.6	69.6	58	54.2	2	7	90	0.00	30.209 
13:30	69.4	69.4	69.4	55	52.5	3	9	112	0.00	30.206 
13:35	69.4	69.4	69.4	57	53.5	2	5	112	0.00	30.206 
13:40	69.6	69.6	69.6	56	53.2	3	11	90	0.00	30.206 
13:45	69.6	69.6	69.6	57	53.7	2	7	68	0.00	30.207 
13:50	69.4	69.4	69.4	58	54.0	2	5	112	0.00	30.207 
13:55	69.4	69.4	69.4	59	54.4	1	4	135	0.00	30.207 
14:00	69.6	69.6	69.6	59	54.6	1	5	90	0.00	30.200 
14:05	69.6	69.6	69.6	56	53.2	2	7	90	0.00	30.200 
14:10	69.8	69.8	69.8	57	53.9	3	7	90	0.00	30.200 
14:15	69.8	69.8	69.8	58	54.3	2	9	68	0.00	30.202 
14:20	70.1	70.1	70.1	54	52.7	2	7	90	0.00	30.202 
14:25	69.9	69.9	69.9	55	53.0	3	10	112	0.00	30.202 
14:30	69.9	69.9	69.9	54	52.5	3	7	112	0.00	30.198 
14:35	69.9	69.9	69.9	57	54.0	3	6	90	0.00	30.198 
14:40	69.8	69.8	69.8	54	52.4	4	10	90	0.00	30.198 
14:45	69.8	69.8	69.8	56	53.4	2	5	90	0.00	30.198 
14:50	69.9	69.9	69.9	54	52.5	3	6	90	0.00	30.198 
14:55	69.9	69.9	69.9	54	52.5	2	7	90	0.00	30.198 
15:00	70.1	70.1	70.1	58	54.6	1	7	112	0.00	30.195 
15:05	70.4	70.4	70.4	58	54.9	1	4	112	0.00	30.195 
15:10	69.9	69.9	69.9	55	53.0	2	6	112	0.00	30.195 
15:15	69.6	69.6	69.6	56	53.2	3	9	112	0.00	30.194 
15:20	69.6	69.6	69.6	56	53.2	2	7	112	0.00	30.194 
15:25	69.3	69.3	69.3	54	51.9	3	10	90	0.00	30.194 
15:30	69.3	69.3	69.3	55	52.4	2	11	112	0.00	30.189 
15:35	69.9	69.9	69.9	56	53.5	1	4	180	0.00	30.189 
15:40	70.1	70.1	70.1	55	53.2	3	10	90	0.00	30.189 
15:45	70.1	70.1	70.1	57	54.1	2	6	135	0.00	30.185 
15:50	70.1	70.1	70.1	56	53.7	3	7	90	0.00	30.185 
15:55	70.1	70.1	70.1	56	53.7	1	5	112	0.00	30.185 
16:00	69.8	69.8	69.8	56	53.4	2	3	112	0.00	30.184 
16:05	69.8	69.8	69.8	55	52.9	3	14	90	0.00	30.184 
16:10	69.8	69.8	69.8	52	51.4	4	12	90	0.00	30.184 
16:15	69.9	69.9	69.9	55	53.0	2	6	90	0.00	30.183 
16:20	69.9	69.9	69.9	53	52.0	3	7	112	0.00	30.183 
16:25	70.1	70.1	70.1	56	53.7	2	5	90	0.00	30.183 
16:30	70.3	70.3	70.3	51	51.3	1	3	90	0.00	30.175 
16:35	70.1	70.1	70.1	51	51.1	3	10	90	0.00	30.175 
16:40	70.1	70.1	70.1	52	51.6	2	6	90	0.00	30.175 
16:45	70.1	70.1	70.1	52	51.6	1	5	135	0.00	30.174 
16:50	70.1	70.1	70.1	52	51.6	2	7	135	0.00	30.174 
16:55	70.1	70.1	70.1	50	50.6	2	7	90	0.00	30.174 
17:00	70.3	70.3	70.3	50	50.8	3	7	90	0.00	30.175 
17:05	70.3	70.3	70.3	51	51.3	3	7	90	0.00	30.175 
17:10	70.3	70.3	70.3	48	49.7	3	8	90	0.00	30.175 
17:15	70.1	70.1	70.1	47	48.9	3	9	90	0.00	30.174 
17:20	70.1	70.1	70.1	49	50.0	1	6	90	0.00	30.174 
17:25	70.1	70.1	70.1	47	48.9	3	10	90	0.00	30.174 
17:30	70.1	70.1	70.1	48	49.5	2	7	90	0.00	30.175 
17:35	70.3	70.3	70.3	50	50.8	2	10	135	0.00	30.175 
17:40	70.3	70.3	70.3	52	51.8	1	4	135	0.00	30.175 
17:45	70.3	70.3	70.3	52	51.8	3	9	112	0.00	30.178 
17:50	69.9	69.9	69.9	52	51.5	2	6	90	0.00	30.178 
17:55	69.8	69.8	69.8	51	50.8	3	8	90	0.00	30.178 
18:00	69.6	69.6	69.6	50	50.1	3	7	90	0.00	30.181 
18:05	69.4	69.4	69.4	52	51.0	4	11	90	0.00	30.181 
18:10	69.3	69.3	69.3	54	51.9	2	6	90	0.00	30.181 
18:15	69.3	69.3	69.3	54	51.9	3	9	112	0.00	30.186 
18:20	69.1	69.1	69.1	54	51.7	4	11	90	0.00	30.186 
18:25	68.6	68.6	68.6	55	51.8	3	6	112	0.00	30.186 
18:30	68.3	68.3	68.3	56	52.0	1	4	90	0.00	30.189 
18:35	68.1	68.1	68.1	56	51.8	1	5	135	0.00	30.189 
18:40	67.9	67.9	67.9	57	52.1	1	3	90	0.00	30.189 
18:45	67.6	67.6	67.6	54	50.4	4	14	112	0.00	30.190 
18:50	67.3	67.3	67.3	54	50.1	4	7	90	0.00	30.190 
18:55	66.9	66.9	66.9	55	50.2	3	6	112	0.00	30.190 
19:00	66.8	66.8	66.8	57	51.1	2	6	90	0.00	30.195 
19:05	66.6	66.6	66.6	57	50.9	1	5	68	0.00	30.195 
19:10	66.4	66.4	66.4	57	50.7	1	4	112	0.00	30.195 
19:15	66.1	66.1	66.1	57	50.4	2	5	112	0.00	30.204 
19:20	66.0	66.0	66.0	58	50.8	3	7	90	0.00	30.204 
19:25	65.6	65.6	65.6	58	50.4	2	6	90	0.00	30.204 
19:30	65.3	65.3	65.3	58	50.1	1	4	90	0.00	30.203 
19:35	65.0	65.0	65.0	58	49.9	2	5	112	0.00	30.203 
19:40	64.8	64.8	64.8	59	50.1	2	7	112	0.00	30.203 
19:45	64.5	64.5	64.5	60	50.3	1	6	112	0.00	30.206 
19:50	64.2	64.2	64.2	61	50.5	1	5	112	0.00	30.206 
19:55	63.9	63.9	63.9	62	50.6	1	4	112	0.00	30.206 
20:00	63.4	63.4	63.4	62	50.1	1	3	112	0.00	30.208 
20:05	63.1	63.1	63.1	63	50.3	1	5	112	0.00	30.208 
20:10	62.9	62.9	62.9	63	50.1	0	2	112	0.00	30.208 
20:15	62.6	62.6	62.6	64	50.2	1	3	112	0.00	30.213 
20:20	62.3	62.3	62.3	65	50.4	1	3	112	0.00	30.213 
20:25	62.1	62.1	62.1	65	50.2	0	2	112	0.00	30.213 
20:30	61.8	61.8	61.8	66	50.3	0	5	112	0.00	30.218 
20:35	61.3	61.3	61.3	67	50.2	1	3	112	0.00	30.218 
20:40	61.2	61.2	61.2	68	50.5	0	2	112	0.00	30.218 
20:45	60.9	60.9	60.9	68	50.3	1	3	68	0.00	30.221 
20:50	60.7	60.7	60.7	69	50.5	1	3	90	0.00	30.221 
20:55	60.4	60.4	60.4	69	50.2	1	3	90	0.00	30.221 
21:00	60.2	60.2	60.2	70	50.4	0	3	90	0.00	30.225 
21:05	60.1	60.1	60.1	71	50.7	0	2	90	0.00	30.225 
21:10	59.8	59.8	59.8	71	50.4	1	3	90	0.00	30.225 
21:15	59.6	59.6	59.6	72	50.6	0	1	112	0.00	30.225 
21:20	59.3	59.3	59.3	72	50.3	0	2	112	0.00	30.225 
21:25	59.0	59.0	59.0	73	50.4	0	1	112	0.00	30.225 
21:30	58.7	58.7	58.7	74	50.4	0	1	112	0.00	30.227 
21:35	58.6	58.6	58.6	75	50.7	0	1	112	0.00	30.227 
21:40	58.3	58.3	58.3	75	50.4	0	1	112	0.00	30.227 
21:45	58.0	58.0	58.0	76	50.5	0	1	112	0.00	30.227 
21:50	57.8	57.8	57.8	77	50.6	0	2	112	0.00	30.227 
21:55	57.5	57.5	57.5	77	50.3	0	1	112	0.00	30.227 
22:00	57.5	57.5	57.5	78	50.7	0	2	112	0.00	30.228 
22:05	57.3	57.3	57.3	78	50.5	0	2	112	0.00	30.228 
22:10	57.3	57.3	57.3	78	50.5	0	1	112	0.00	30.228 
22:15	57.3	57.3	57.3	78	50.5	0	1	112	0.00	30.223 
22:20	57.2	57.2	57.2	79	50.7	0	2	112	0.00	30.223 
22:25	57.0	57.0	57.0	79	50.5	0	1	112	0.00	30.223 
22:30	56.9	56.9	56.9	79	50.5	0	1	112	0.00	30.223 
22:35	56.7	56.7	56.7	80	50.6	0	0	---	0.00	30.223 
22:40	56.6	56.6	56.6	80	50.5	0	0	---	0.00	30.223 
22:45	56.5	56.5	56.5	81	50.7	0	1	112	0.00	30.224 
22:50	56.5	56.5	56.5	81	50.7	0	3	112	0.00	30.224 
22:55	56.3	56.3	56.3	81	50.5	0	2	112	0.00	30.224 
23:00	56.3	56.3	56.3	81	50.5	0	2	112	0.00	30.227 
23:05	56.2	56.2	56.2	81	50.4	0	1	112	0.00	30.227 
23:10	56.0	56.0	56.0	81	50.3	0	2	112	0.00	30.227 
23:15	55.9	55.9	55.9	82	50.5	0	1	112	0.00	30.225 
23:20	55.9	55.9	55.9	82	50.5	0	2	112	0.00	30.225 
23:25	55.7	55.7	55.7	82	50.3	0	1	112	0.00	30.225 
23:30	55.6	55.6	55.6	83	50.5	0	1	112	0.00	30.224 
23:35	55.6	55.6	55.6	83	50.5	0	2	112	0.00	30.224 
23:40	55.4	55.4	55.4	83	50.3	0	1	112	0.00	30.224 
23:45	55.4	55.4	55.4	83	50.3	0	1	112	0.00	30.223 
23:50	55.3	55.3	55.3	83	50.2	0	1	112	0.00	30.223 
23:55	55.0	55.0	55.0	83	49.9	0	0	---	0.00	30.223 

CoCoRaHS
IN-AL-39
A2 Web Hosting
Creative Commons License
GoDaddy
search engine by freefind advanced

loaded 2018-11-12 19:55:21 • last modified 2010-11-18 10:43:29
Privacy PolicyDisclaimer
• wx.awcolley.com is powered by PmWiki v.2002016 •
• all content (unless otherwise noted) © 2018 A W Colley